sensor_id;sensor_type;location;lat;lon;timestamp;P1;durP1;ratioP1;P2;durP2;ratioP2
65835;SDS011;52595;51.608;7.216;2024-01-15T00:02:07;37.33;;;15.77;;
65835;SDS011;52595;51.608;7.216;2024-01-15T00:04:36;58.67;;;21.13;;
65835;SDS011;52595;51.608;7.216;2024-01-15T00:07:02;32.83;;;14.53;;
65835;SDS011;52595;51.608;7.216;2024-01-15T00:09:28;54.90;;;20.80;;
65835;SDS011;52595;51.608;7.216;2024-01-15T00:11:53;41.63;;;17.40;;
65835;SDS011;52595;51.608;7.216;2024-01-15T00:14:19;41.05;;;15.95;;
65835;SDS011;52595;51.608;7.216;2024-01-15T00:16:45;59.53;;;23.30;;
65835;SDS011;52595;51.608;7.216;2024-01-15T00:19:10;53.83;;;20.52;;
65835;SDS011;52595;51.608;7.216;2024-01-15T00:21:36;43.92;;;18.10;;
65835;SDS011;52595;51.608;7.216;2024-01-15T00:24:01;56.35;;;19.95;;
65835;SDS011;52595;51.608;7.216;2024-01-15T00:26:27;48.55;;;19.75;;
65835;SDS011;52595;51.608;7.216;2024-01-15T00:28:52;67.43;;;23.20;;
65835;SDS011;52595;51.608;7.216;2024-01-15T00:31:17;47.38;;;18.40;;
65835;SDS011;52595;51.608;7.216;2024-01-15T00:33:43;53.10;;;20.10;;
65835;SDS011;52595;51.608;7.216;2024-01-15T00:36:08;42.00;;;16.92;;
65835;SDS011;52595;51.608;7.216;2024-01-15T00:38:34;36.97;;;15.27;;
65835;SDS011;52595;51.608;7.216;2024-01-15T00:40:59;51.95;;;19.77;;
65835;SDS011;52595;51.608;7.216;2024-01-15T00:43:24;53.50;;;19.92;;
65835;SDS011;52595;51.608;7.216;2024-01-15T00:45:50;54.72;;;20.98;;
65835;SDS011;52595;51.608;7.216;2024-01-15T00:48:15;57.85;;;19.90;;
65835;SDS011;52595;51.608;7.216;2024-01-15T00:50:40;56.53;;;20.75;;
65835;SDS011;52595;51.608;7.216;2024-01-15T00:53:06;64.50;;;24.77;;
65835;SDS011;52595;51.608;7.216;2024-01-15T00:55:31;45.83;;;18.13;;
65835;SDS011;52595;51.608;7.216;2024-01-15T00:57:57;35.85;;;15.25;;
65835;SDS011;52595;51.608;7.216;2024-01-15T01:00:22;36.08;;;15.48;;
65835;SDS011;52595;51.608;7.216;2024-01-15T01:02:47;42.78;;;15.13;;
65835;SDS011;52595;51.608;7.216;2024-01-15T01:05:13;61.80;;;22.45;;
65835;SDS011;52595;51.608;7.216;2024-01-15T01:07:38;56.60;;;20.15;;
65835;SDS011;52595;51.608;7.216;2024-01-15T01:10:04;29.42;;;13.30;;
65835;SDS011;52595;51.608;7.216;2024-01-15T01:12:29;50.03;;;18.60;;
65835;SDS011;52595;51.608;7.216;2024-01-15T01:14:55;49.63;;;19.42;;
65835;SDS011;52595;51.608;7.216;2024-01-15T01:17:21;53.28;;;19.20;;
65835;SDS011;52595;51.608;7.216;2024-01-15T01:19:46;49.95;;;19.92;;
65835;SDS011;52595;51.608;7.216;2024-01-15T01:22:12;34.88;;;13.80;;
65835;SDS011;52595;51.608;7.216;2024-01-15T01:24:37;34.75;;;15.90;;
65835;SDS011;52595;51.608;7.216;2024-01-15T01:27:02;53.50;;;20.52;;
65835;SDS011;52595;51.608;7.216;2024-01-15T01:29:28;47.08;;;18.77;;
65835;SDS011;52595;51.608;7.216;2024-01-15T01:31:53;37.40;;;14.77;;
65835;SDS011;52595;51.608;7.216;2024-01-15T01:34:19;41.38;;;17.63;;
65835;SDS011;52595;51.608;7.216;2024-01-15T01:36:47;49.13;;;19.33;;
65835;SDS011;52595;51.608;7.216;2024-01-15T01:39:12;36.60;;;14.43;;
65835;SDS011;52595;51.608;7.216;2024-01-15T01:41:38;38.22;;;15.02;;
65835;SDS011;52595;51.608;7.216;2024-01-15T01:44:03;40.03;;;15.48;;
65835;SDS011;52595;51.608;7.216;2024-01-15T01:46:29;32.00;;;14.25;;
65835;SDS011;52595;51.608;7.216;2024-01-15T01:48:55;41.10;;;16.40;;
65835;SDS011;52595;51.608;7.216;2024-01-15T01:51:21;30.58;;;12.10;;
65835;SDS011;52595;51.608;7.216;2024-01-15T01:53:48;42.55;;;17.75;;
65835;SDS011;52595;51.608;7.216;2024-01-15T01:56:14;35.78;;;15.25;;
65835;SDS011;52595;51.608;7.216;2024-01-15T01:58:39;37.08;;;15.73;;
65835;SDS011;52595;51.608;7.216;2024-01-15T02:01:05;31.23;;;12.20;;
65835;SDS011;52595;51.608;7.216;2024-01-15T02:03:31;35.22;;;13.38;;
65835;SDS011;52595;51.608;7.216;2024-01-15T02:05:57;38.35;;;16.85;;
65835;SDS011;52595;51.608;7.216;2024-01-15T02:08:25;37.72;;;15.63;;
65835;SDS011;52595;51.608;7.216;2024-01-15T02:10:51;26.20;;;11.40;;
65835;SDS011;52595;51.608;7.216;2024-01-15T02:13:17;27.10;;;11.85;;
65835;SDS011;52595;51.608;7.216;2024-01-15T02:15:43;26.05;;;12.82;;
65835;SDS011;52595;51.608;7.216;2024-01-15T02:18:08;24.27;;;10.75;;
65835;SDS011;52595;51.608;7.216;2024-01-15T02:20:34;33.80;;;13.55;;
65835;SDS011;52595;51.608;7.216;2024-01-15T02:23:03;31.38;;;12.98;;
65835;SDS011;52595;51.608;7.216;2024-01-15T02:25:31;24.52;;;11.30;;
65835;SDS011;52595;51.608;7.216;2024-01-15T02:27:57;29.10;;;13.05;;
65835;SDS011;52595;51.608;7.216;2024-01-15T02:30:22;33.53;;;12.90;;
65835;SDS011;52595;51.608;7.216;2024-01-15T02:32:50;35.75;;;14.70;;
65835;SDS011;52595;51.608;7.216;2024-01-15T02:35:15;37.08;;;12.38;;
65835;SDS011;52595;51.608;7.216;2024-01-15T02:37:41;27.13;;;12.55;;
65835;SDS011;52595;51.608;7.216;2024-01-15T02:40:06;24.63;;;13.00;;
65835;SDS011;52595;51.608;7.216;2024-01-15T02:42:32;30.90;;;13.13;;
65835;SDS011;52595;51.608;7.216;2024-01-15T02:44:58;26.70;;;12.82;;
65835;SDS011;52595;51.608;7.216;2024-01-15T02:47:23;33.80;;;14.93;;
65835;SDS011;52595;51.608;7.216;2024-01-15T02:49:48;37.45;;;15.05;;
65835;SDS011;52595;51.608;7.216;2024-01-15T02:52:14;22.25;;;10.52;;
65835;SDS011;52595;51.608;7.216;2024-01-15T02:54:39;29.85;;;12.95;;
65835;SDS011;52595;51.608;7.216;2024-01-15T02:57:04;21.48;;;10.85;;
65835;SDS011;52595;51.608;7.216;2024-01-15T02:59:30;39.88;;;12.15;;
65835;SDS011;52595;51.608;7.216;2024-01-15T03:01:55;23.38;;;11.40;;
65835;SDS011;52595;51.608;7.216;2024-01-15T03:04:20;31.45;;;13.10;;
65835;SDS011;52595;51.608;7.216;2024-01-15T03:06:46;24.13;;;9.75;;
65835;SDS011;52595;51.608;7.216;2024-01-15T03:09:11;23.38;;;10.32;;
65835;SDS011;52595;51.608;7.216;2024-01-15T03:11:39;31.85;;;13.10;;
65835;SDS011;52595;51.608;7.216;2024-01-15T03:14:05;29.70;;;10.88;;
65835;SDS011;52595;51.608;7.216;2024-01-15T03:16:31;32.63;;;13.48;;
65835;SDS011;52595;51.608;7.216;2024-01-15T03:18:56;25.83;;;12.40;;
65835;SDS011;52595;51.608;7.216;2024-01-15T03:21:21;21.27;;;9.77;;
65835;SDS011;52595;51.608;7.216;2024-01-15T03:23:47;20.73;;;9.02;;
65835;SDS011;52595;51.608;7.216;2024-01-15T03:26:12;24.02;;;10.52;;
65835;SDS011;52595;51.608;7.216;2024-01-15T03:28:38;26.48;;;12.05;;
65835;SDS011;52595;51.608;7.216;2024-01-15T03:31:03;18.42;;;9.82;;
65835;SDS011;52595;51.608;7.216;2024-01-15T03:33:28;21.27;;;11.25;;
65835;SDS011;52595;51.608;7.216;2024-01-15T03:35:54;25.63;;;11.60;;
65835;SDS011;52595;51.608;7.216;2024-01-15T03:38:19;24.02;;;10.63;;
65835;SDS011;52595;51.608;7.216;2024-01-15T03:40:44;21.08;;;10.90;;
65835;SDS011;52595;51.608;7.216;2024-01-15T03:43:10;29.08;;;12.50;;
65835;SDS011;52595;51.608;7.216;2024-01-15T03:45:35;30.45;;;13.85;;
65835;SDS011;52595;51.608;7.216;2024-01-15T03:48:00;25.13;;;11.10;;
65835;SDS011;52595;51.608;7.216;2024-01-15T03:50:26;22.52;;;10.27;;
65835;SDS011;52595;51.608;7.216;2024-01-15T03:52:51;23.50;;;9.15;;
65835;SDS011;52595;51.608;7.216;2024-01-15T03:55:16;23.40;;;10.40;;
65835;SDS011;52595;51.608;7.216;2024-01-15T03:57:42;16.95;;;8.13;;
65835;SDS011;52595;51.608;7.216;2024-01-15T04:00:07;26.13;;;11.45;;
65835;SDS011;52595;51.608;7.216;2024-01-15T04:02:33;18.58;;;9.13;;
65835;SDS011;52595;51.608;7.216;2024-01-15T04:04:58;14.90;;;6.90;;
65835;SDS011;52595;51.608;7.216;2024-01-15T04:07:24;19.15;;;8.65;;
65835;SDS011;52595;51.608;7.216;2024-01-15T04:09:49;14.23;;;7.45;;
65835;SDS011;52595;51.608;7.216;2024-01-15T04:12:14;21.02;;;9.82;;
65835;SDS011;52595;51.608;7.216;2024-01-15T04:14:40;20.25;;;9.77;;
65835;SDS011;52595;51.608;7.216;2024-01-15T04:17:05;16.75;;;8.90;;
65835;SDS011;52595;51.608;7.216;2024-01-15T04:19:31;20.73;;;10.02;;
65835;SDS011;52595;51.608;7.216;2024-01-15T04:21:56;18.85;;;8.90;;
65835;SDS011;52595;51.608;7.216;2024-01-15T04:24:21;14.75;;;8.23;;
65835;SDS011;52595;51.608;7.216;2024-01-15T04:26:47;23.67;;;10.43;;
65835;SDS011;52595;51.608;7.216;2024-01-15T04:29:12;15.50;;;7.82;;
65835;SDS011;52595;51.608;7.216;2024-01-15T04:31:37;19.27;;;9.13;;
65835;SDS011;52595;51.608;7.216;2024-01-15T04:34:03;19.50;;;8.18;;
65835;SDS011;52595;51.608;7.216;2024-01-15T04:36:28;11.68;;;5.82;;
65835;SDS011;52595;51.608;7.216;2024-01-15T04:38:53;21.80;;;9.48;;
65835;SDS011;52595;51.608;7.216;2024-01-15T04:41:19;14.23;;;7.15;;
65835;SDS011;52595;51.608;7.216;2024-01-15T04:43:44;10.93;;;6.30;;
65835;SDS011;52595;51.608;7.216;2024-01-15T04:46:10;19.65;;;7.90;;
65835;SDS011;52595;51.608;7.216;2024-01-15T04:48:36;12.77;;;7.43;;
65835;SDS011;52595;51.608;7.216;2024-01-15T04:51:04;19.17;;;8.52;;
65835;SDS011;52595;51.608;7.216;2024-01-15T04:53:30;19.00;;;9.10;;
65835;SDS011;52595;51.608;7.216;2024-01-15T04:55:55;11.65;;;6.80;;
65835;SDS011;52595;51.608;7.216;2024-01-15T04:58:21;14.90;;;6.88;;
65835;SDS011;52595;51.608;7.216;2024-01-15T05:00:49;16.70;;;7.55;;
65835;SDS011;52595;51.608;7.216;2024-01-15T05:03:15;14.90;;;7.45;;
65835;SDS011;52595;51.608;7.216;2024-01-15T05:05:40;13.80;;;8.30;;
65835;SDS011;52595;51.608;7.216;2024-01-15T05:08:06;19.35;;;9.23;;
65835;SDS011;52595;51.608;7.216;2024-01-15T05:10:31;22.70;;;10.35;;
65835;SDS011;52595;51.608;7.216;2024-01-15T05:12:56;16.30;;;7.97;;
65835;SDS011;52595;51.608;7.216;2024-01-15T05:15:22;14.20;;;7.38;;
65835;SDS011;52595;51.608;7.216;2024-01-15T05:17:47;23.10;;;9.85;;
65835;SDS011;52595;51.608;7.216;2024-01-15T05:20:13;17.25;;;7.20;;
65835;SDS011;52595;51.608;7.216;2024-01-15T05:22:38;17.38;;;7.63;;
65835;SDS011;52595;51.608;7.216;2024-01-15T05:25:03;19.73;;;8.05;;
65835;SDS011;52595;51.608;7.216;2024-01-15T05:27:29;18.50;;;9.77;;
65835;SDS011;52595;51.608;7.216;2024-01-15T05:29:54;18.35;;;7.68;;
65835;SDS011;52595;51.608;7.216;2024-01-15T05:32:20;18.88;;;8.10;;
65835;SDS011;52595;51.608;7.216;2024-01-15T05:34:45;14.70;;;7.15;;
65835;SDS011;52595;51.608;7.216;2024-01-15T05:37:10;16.27;;;8.10;;
65835;SDS011;52595;51.608;7.216;2024-01-15T05:39:36;14.00;;;7.57;;
65835;SDS011;52595;51.608;7.216;2024-01-15T05:42:02;15.85;;;7.85;;
65835;SDS011;52595;51.608;7.216;2024-01-15T05:44:27;22.73;;;11.93;;
65835;SDS011;52595;51.608;7.216;2024-01-15T05:46:53;19.10;;;9.32;;
65835;SDS011;52595;51.608;7.216;2024-01-15T05:49:18;26.20;;;11.65;;
65835;SDS011;52595;51.608;7.216;2024-01-15T05:51:43;14.30;;;7.47;;
65835;SDS011;52595;51.608;7.216;2024-01-15T05:54:09;17.48;;;8.65;;
65835;SDS011;52595;51.608;7.216;2024-01-15T05:56:34;13.73;;;6.57;;
65835;SDS011;52595;51.608;7.216;2024-01-15T05:59:00;13.45;;;5.80;;
65835;SDS011;52595;51.608;7.216;2024-01-15T06:01:25;15.65;;;8.05;;
65835;SDS011;52595;51.608;7.216;2024-01-15T06:03:51;17.10;;;6.35;;
65835;SDS011;52595;51.608;7.216;2024-01-15T06:06:17;21.17;;;7.63;;
65835;SDS011;52595;51.608;7.216;2024-01-15T06:08:42;14.90;;;6.90;;
65835;SDS011;52595;51.608;7.216;2024-01-15T06:11:08;21.15;;;8.23;;
65835;SDS011;52595;51.608;7.216;2024-01-15T06:13:33;13.73;;;7.07;;
65835;SDS011;52595;51.608;7.216;2024-01-15T06:15:59;21.48;;;8.90;;
65835;SDS011;52595;51.608;7.216;2024-01-15T06:18:24;13.80;;;6.35;;
65835;SDS011;52595;51.608;7.216;2024-01-15T06:20:49;10.70;;;6.15;;
65835;SDS011;52595;51.608;7.216;2024-01-15T06:23:15;14.55;;;8.07;;
65835;SDS011;52595;51.608;7.216;2024-01-15T06:25:40;18.25;;;8.32;;
65835;SDS011;52595;51.608;7.216;2024-01-15T06:28:05;15.13;;;7.28;;
65835;SDS011;52595;51.608;7.216;2024-01-15T06:30:31;10.38;;;6.15;;
65835;SDS011;52595;51.608;7.216;2024-01-15T06:32:56;14.68;;;6.72;;
65835;SDS011;52595;51.608;7.216;2024-01-15T06:35:22;16.42;;;7.43;;
65835;SDS011;52595;51.608;7.216;2024-01-15T06:37:47;20.40;;;8.13;;
65835;SDS011;52595;51.608;7.216;2024-01-15T06:40:12;18.38;;;8.50;;
65835;SDS011;52595;51.608;7.216;2024-01-15T06:42:38;12.27;;;6.90;;
65835;SDS011;52595;51.608;7.216;2024-01-15T06:45:04;21.60;;;8.73;;
65835;SDS011;52595;51.608;7.216;2024-01-15T06:47:30;22.13;;;10.25;;
65835;SDS011;52595;51.608;7.216;2024-01-15T06:49:57;15.82;;;8.15;;
65835;SDS011;52595;51.608;7.216;2024-01-15T06:52:23;17.75;;;8.30;;
65835;SDS011;52595;51.608;7.216;2024-01-15T06:54:49;14.70;;;7.50;;
65835;SDS011;52595;51.608;7.216;2024-01-15T06:57:14;20.52;;;9.85;;
65835;SDS011;52595;51.608;7.216;2024-01-15T06:59:40;24.45;;;10.57;;
65835;SDS011;52595;51.608;7.216;2024-01-15T07:02:05;16.98;;;8.23;;
65835;SDS011;52595;51.608;7.216;2024-01-15T07:04:31;18.92;;;9.95;;
65835;SDS011;52595;51.608;7.216;2024-01-15T07:06:56;17.95;;;9.52;;
65835;SDS011;52595;51.608;7.216;2024-01-15T07:09:22;11.27;;;7.25;;
65835;SDS011;52595;51.608;7.216;2024-01-15T07:11:47;17.80;;;9.68;;
65835;SDS011;52595;51.608;7.216;2024-01-15T07:14:13;19.27;;;9.30;;
65835;SDS011;52595;51.608;7.216;2024-01-15T07:16:39;16.55;;;8.32;;
65835;SDS011;52595;51.608;7.216;2024-01-15T07:19:04;20.75;;;8.50;;
65835;SDS011;52595;51.608;7.216;2024-01-15T07:21:33;9.13;;;5.05;;
65835;SDS011;52595;51.608;7.216;2024-01-15T07:23:58;12.80;;;6.80;;
65835;SDS011;52595;51.608;7.216;2024-01-15T07:26:23;16.45;;;6.32;;
65835;SDS011;52595;51.608;7.216;2024-01-15T07:28:49;13.05;;;6.15;;
65835;SDS011;52595;51.608;7.216;2024-01-15T07:31:17;15.07;;;7.65;;
65835;SDS011;52595;51.608;7.216;2024-01-15T07:33:42;12.82;;;6.05;;
65835;SDS011;52595;51.608;7.216;2024-01-15T07:36:08;14.65;;;6.75;;
65835;SDS011;52595;51.608;7.216;2024-01-15T07:38:33;10.32;;;5.57;;
65835;SDS011;52595;51.608;7.216;2024-01-15T07:40:59;10.38;;;6.50;;
65835;SDS011;52595;51.608;7.216;2024-01-15T07:43:24;9.02;;;5.50;;
65835;SDS011;52595;51.608;7.216;2024-01-15T07:45:49;10.77;;;5.13;;
65835;SDS011;52595;51.608;7.216;2024-01-15T07:48:15;13.05;;;6.35;;
65835;SDS011;52595;51.608;7.216;2024-01-15T07:50:40;8.48;;;5.07;;
65835;SDS011;52595;51.608;7.216;2024-01-15T07:53:05;14.63;;;7.28;;
65835;SDS011;52595;51.608;7.216;2024-01-15T07:55:31;8.27;;;5.07;;
65835;SDS011;52595;51.608;7.216;2024-01-15T07:57:57;11.23;;;6.10;;
65835;SDS011;52595;51.608;7.216;2024-01-15T08:00:24;11.95;;;6.00;;
65835;SDS011;52595;51.608;7.216;2024-01-15T08:02:50;22.30;;;6.40;;
65835;SDS011;52595;51.608;7.216;2024-01-15T08:05:16;12.73;;;6.35;;
65835;SDS011;52595;51.608;7.216;2024-01-15T08:07:41;10.85;;;5.95;;
65835;SDS011;52595;51.608;7.216;2024-01-15T08:10:07;11.88;;;5.80;;
65835;SDS011;52595;51.608;7.216;2024-01-15T08:12:32;10.40;;;5.18;;
65835;SDS011;52595;51.608;7.216;2024-01-15T08:14:58;11.65;;;5.50;;
65835;SDS011;52595;51.608;7.216;2024-01-15T08:17:23;9.57;;;6.07;;
65835;SDS011;52595;51.608;7.216;2024-01-15T08:19:52;9.05;;;4.45;;
65835;SDS011;52595;51.608;7.216;2024-01-15T08:22:18;9.73;;;5.25;;
65835;SDS011;52595;51.608;7.216;2024-01-15T08:24:43;9.07;;;4.78;;
65835;SDS011;52595;51.608;7.216;2024-01-15T08:27:09;10.48;;;5.95;;
65835;SDS011;52595;51.608;7.216;2024-01-15T08:29:35;10.73;;;5.97;;
65835;SDS011;52595;51.608;7.216;2024-01-15T08:32:00;14.20;;;8.25;;
65835;SDS011;52595;51.608;7.216;2024-01-15T08:34:25;16.45;;;8.60;;
65835;SDS011;52595;51.608;7.216;2024-01-15T08:36:51;14.38;;;7.72;;
65835;SDS011;52595;51.608;7.216;2024-01-15T08:39:16;9.82;;;6.55;;
65835;SDS011;52595;51.608;7.216;2024-01-15T08:41:43;16.23;;;8.73;;
65835;SDS011;52595;51.608;7.216;2024-01-15T08:44:08;13.38;;;7.68;;
65835;SDS011;52595;51.608;7.216;2024-01-15T08:46:33;17.55;;;10.10;;
65835;SDS011;52595;51.608;7.216;2024-01-15T08:48:59;17.60;;;10.23;;
65835;SDS011;52595;51.608;7.216;2024-01-15T08:51:24;18.40;;;11.27;;
65835;SDS011;52595;51.608;7.216;2024-01-15T08:53:50;18.20;;;9.77;;
65835;SDS011;52595;51.608;7.216;2024-01-15T08:56:15;22.88;;;13.32;;
65835;SDS011;52595;51.608;7.216;2024-01-15T08:58:40;17.70;;;10.63;;
65835;SDS011;52595;51.608;7.216;2024-01-15T09:01:06;13.05;;;8.13;;
65835;SDS011;52595;51.608;7.216;2024-01-15T09:03:31;14.73;;;8.23;;
65835;SDS011;52595;51.608;7.216;2024-01-15T09:05:58;21.38;;;12.25;;
65835;SDS011;52595;51.608;7.216;2024-01-15T09:08:24;13.82;;;8.98;;
65835;SDS011;52595;51.608;7.216;2024-01-15T09:10:49;12.98;;;7.68;;
65835;SDS011;52595;51.608;7.216;2024-01-15T09:13:15;18.13;;;10.82;;
65835;SDS011;52595;51.608;7.216;2024-01-15T09:15:41;19.08;;;11.18;;
65835;SDS011;52595;51.608;7.216;2024-01-15T09:18:07;12.27;;;8.13;;
65835;SDS011;52595;51.608;7.216;2024-01-15T09:20:33;16.70;;;9.00;;
65835;SDS011;52595;51.608;7.216;2024-01-15T09:22:58;14.43;;;8.93;;
65835;SDS011;52595;51.608;7.216;2024-01-15T09:25:23;17.60;;;9.73;;
65835;SDS011;52595;51.608;7.216;2024-01-15T09:27:49;14.93;;;8.63;;
65835;SDS011;52595;51.608;7.216;2024-01-15T09:30:14;15.00;;;8.32;;
65835;SDS011;52595;51.608;7.216;2024-01-15T09:32:40;17.95;;;9.05;;
65835;SDS011;52595;51.608;7.216;2024-01-15T09:35:05;13.50;;;7.15;;
65835;SDS011;52595;51.608;7.216;2024-01-15T09:37:31;9.10;;;5.47;;
65835;SDS011;52595;51.608;7.216;2024-01-15T09:39:57;8.73;;;5.57;;
65835;SDS011;52595;51.608;7.216;2024-01-15T09:42:23;17.27;;;8.13;;
65835;SDS011;52595;51.608;7.216;2024-01-15T09:44:50;19.67;;;8.60;;
65835;SDS011;52595;51.608;7.216;2024-01-15T09:47:16;10.93;;;6.13;;
65835;SDS011;52595;51.608;7.216;2024-01-15T09:49:42;9.18;;;4.95;;
65835;SDS011;52595;51.608;7.216;2024-01-15T09:52:08;11.07;;;6.15;;
65835;SDS011;52595;51.608;7.216;2024-01-15T09:54:35;9.50;;;5.22;;
65835;SDS011;52595;51.608;7.216;2024-01-15T09:57:01;10.82;;;5.68;;
65835;SDS011;52595;51.608;7.216;2024-01-15T09:59:27;7.78;;;4.15;;
65835;SDS011;52595;51.608;7.216;2024-01-15T10:01:53;10.95;;;4.55;;
65835;SDS011;52595;51.608;7.216;2024-01-15T10:04:20;9.18;;;3.97;;
65835;SDS011;52595;51.608;7.216;2024-01-15T10:06:46;9.18;;;4.57;;
65835;SDS011;52595;51.608;7.216;2024-01-15T10:09:14;6.25;;;3.60;;
65835;SDS011;52595;51.608;7.216;2024-01-15T10:11:41;11.95;;;5.57;;
65835;SDS011;52595;51.608;7.216;2024-01-15T10:14:07;6.13;;;3.78;;
65835;SDS011;52595;51.608;7.216;2024-01-15T10:16:33;9.70;;;5.97;;
65835;SDS011;52595;51.608;7.216;2024-01-15T10:18:59;10.18;;;6.15;;
65835;SDS011;52595;51.608;7.216;2024-01-15T10:21:24;10.07;;;6.10;;
65835;SDS011;52595;51.608;7.216;2024-01-15T10:23:51;11.25;;;5.95;;
65835;SDS011;52595;51.608;7.216;2024-01-15T10:26:17;11.90;;;6.28;;
65835;SDS011;52595;51.608;7.216;2024-01-15T10:28:42;8.30;;;5.13;;
65835;SDS011;52595;51.608;7.216;2024-01-15T10:31:07;8.82;;;5.10;;
65835;SDS011;52595;51.608;7.216;2024-01-15T10:33:33;7.63;;;4.70;;
65835;SDS011;52595;51.608;7.216;2024-01-15T10:35:59;11.88;;;6.47;;
65835;SDS011;52595;51.608;7.216;2024-01-15T10:38:26;11.00;;;6.43;;
65835;SDS011;52595;51.608;7.216;2024-01-15T10:40:52;11.57;;;6.05;;
65835;SDS011;52595;51.608;7.216;2024-01-15T10:43:18;12.05;;;6.78;;
65835;SDS011;52595;51.608;7.216;2024-01-15T10:45:47;15.32;;;7.00;;
65835;SDS011;52595;51.608;7.216;2024-01-15T10:48:14;10.20;;;5.68;;
65835;SDS011;52595;51.608;7.216;2024-01-15T10:50:41;10.23;;;5.53;;
65835;SDS011;52595;51.608;7.216;2024-01-15T10:53:07;11.07;;;6.47;;
65835;SDS011;52595;51.608;7.216;2024-01-15T10:55:35;11.25;;;6.72;;
65835;SDS011;52595;51.608;7.216;2024-01-15T10:58:02;18.55;;;5.30;;
65835;SDS011;52595;51.608;7.216;2024-01-15T11:00:28;7.88;;;4.85;;
65835;SDS011;52595;51.608;7.216;2024-01-15T11:02:54;13.90;;;5.88;;
65835;SDS011;52595;51.608;7.216;2024-01-15T11:05:23;9.50;;;5.55;;
65835;SDS011;52595;51.608;7.216;2024-01-15T11:07:49;10.55;;;5.03;;
65835;SDS011;52595;51.608;7.216;2024-01-15T11:23:43;10.00;;;4.82;;
65835;SDS011;52595;51.608;7.216;2024-01-15T11:26:27;6.80;;;4.10;;
65835;SDS011;52595;51.608;7.216;2024-01-15T11:34:04;7.30;;;4.38;;
65835;SDS011;52595;51.608;7.216;2024-01-15T11:41:51;9.27;;;4.95;;
65835;SDS011;52595;51.608;7.216;2024-01-15T11:44:17;8.95;;;3.63;;
65835;SDS011;52595;51.608;7.216;2024-01-15T11:46:43;5.35;;;3.50;;
65835;SDS011;52595;51.608;7.216;2024-01-15T11:52:36;8.05;;;4.65;;
65835;SDS011;52595;51.608;7.216;2024-01-15T11:55:14;7.05;;;3.28;;
65835;SDS011;52595;51.608;7.216;2024-01-15T11:57:51;9.15;;;3.90;;
65835;SDS011;52595;51.608;7.216;2024-01-15T12:00:17;6.05;;;2.80;;
65835;SDS011;52595;51.608;7.216;2024-01-15T12:02:44;7.25;;;3.30;;
65835;SDS011;52595;51.608;7.216;2024-01-15T12:05:17;5.10;;;3.03;;
65835;SDS011;52595;51.608;7.216;2024-01-15T12:07:44;6.93;;;3.13;;
65835;SDS011;52595;51.608;7.216;2024-01-15T12:10:11;4.70;;;3.03;;
65835;SDS011;52595;51.608;7.216;2024-01-15T12:13:23;7.95;;;4.05;;
65835;SDS011;52595;51.608;7.216;2024-01-15T12:15:25;6.03;;;3.70;;
65835;SDS011;52595;51.608;7.216;2024-01-15T12:17:52;16.00;;;3.95;;
65835;SDS011;52595;51.608;7.216;2024-01-15T12:20:19;7.80;;;4.03;;
65835;SDS011;52595;51.608;7.216;2024-01-15T12:22:45;10.88;;;4.30;;
65835;SDS011;52595;51.608;7.216;2024-01-15T12:25:11;10.13;;;3.08;;
65835;SDS011;52595;51.608;7.216;2024-01-15T12:27:36;10.73;;;5.10;;
65835;SDS011;52595;51.608;7.216;2024-01-15T12:30:04;6.88;;;3.97;;
65835;SDS011;52595;51.608;7.216;2024-01-15T12:32:30;9.02;;;4.40;;
65835;SDS011;52595;51.608;7.216;2024-01-15T12:34:55;12.63;;;6.78;;
65835;SDS011;52595;51.608;7.216;2024-01-15T12:37:20;9.02;;;4.63;;
65835;SDS011;52595;51.608;7.216;2024-01-15T12:39:46;8.05;;;4.32;;
65835;SDS011;52595;51.608;7.216;2024-01-15T12:42:14;8.05;;;4.40;;
65835;SDS011;52595;51.608;7.216;2024-01-15T12:44:39;10.15;;;5.65;;
65835;SDS011;52595;51.608;7.216;2024-01-15T12:47:05;7.22;;;5.10;;
65835;SDS011;52595;51.608;7.216;2024-01-15T12:49:31;6.90;;;3.92;;
65835;SDS011;52595;51.608;7.216;2024-01-15T12:51:57;8.55;;;4.47;;
65835;SDS011;52595;51.608;7.216;2024-01-15T12:54:23;7.65;;;3.63;;
65835;SDS011;52595;51.608;7.216;2024-01-15T12:56:49;8.25;;;3.47;;
65835;SDS011;52595;51.608;7.216;2024-01-15T12:59:15;8.05;;;3.47;;
65835;SDS011;52595;51.608;7.216;2024-01-15T13:01:41;10.70;;;4.20;;
65835;SDS011;52595;51.608;7.216;2024-01-15T13:04:06;5.07;;;3.15;;
65835;SDS011;52595;51.608;7.216;2024-01-15T13:06:34;7.47;;;2.90;;
65835;SDS011;52595;51.608;7.216;2024-01-15T13:09:00;5.93;;;2.35;;
65835;SDS011;52595;51.608;7.216;2024-01-15T13:11:25;5.70;;;2.45;;
65835;SDS011;52595;51.608;7.216;2024-01-15T13:13:52;4.90;;;2.83;;
65835;SDS011;52595;51.608;7.216;2024-01-15T13:16:17;5.45;;;3.10;;
65835;SDS011;52595;51.608;7.216;2024-01-15T13:18:42;4.30;;;2.25;;
65835;SDS011;52595;51.608;7.216;2024-01-15T13:21:08;7.35;;;2.90;;
65835;SDS011;52595;51.608;7.216;2024-01-15T13:23:33;5.78;;;2.90;;
65835;SDS011;52595;51.608;7.216;2024-01-15T13:25:58;3.53;;;2.05;;
65835;SDS011;52595;51.608;7.216;2024-01-15T13:28:24;5.07;;;1.95;;
65835;SDS011;52595;51.608;7.216;2024-01-15T13:30:49;4.70;;;1.55;;
65835;SDS011;52595;51.608;7.216;2024-01-15T13:33:15;4.32;;;1.90;;
65835;SDS011;52595;51.608;7.216;2024-01-15T13:35:40;1.42;;;1.33;;
65835;SDS011;52595;51.608;7.216;2024-01-15T13:38:05;4.93;;;2.40;;
65835;SDS011;52595;51.608;7.216;2024-01-15T13:40:31;5.43;;;1.88;;
65835;SDS011;52595;51.608;7.216;2024-01-15T13:42:56;4.68;;;2.00;;
65835;SDS011;52595;51.608;7.216;2024-01-15T13:45:22;7.72;;;2.00;;
65835;SDS011;52595;51.608;7.216;2024-01-15T13:47:49;3.17;;;1.63;;
65835;SDS011;52595;51.608;7.216;2024-01-15T13:50:14;5.35;;;1.67;;
65835;SDS011;52595;51.608;7.216;2024-01-15T13:52:39;5.05;;;2.10;;
65835;SDS011;52595;51.608;7.216;2024-01-15T13:55:05;6.38;;;2.00;;
65835;SDS011;52595;51.608;7.216;2024-01-15T13:57:31;5.65;;;2.45;;
65835;SDS011;52595;51.608;7.216;2024-01-15T13:59:56;3.83;;;2.03;;
65835;SDS011;52595;51.608;7.216;2024-01-15T14:02:22;8.05;;;3.13;;
65835;SDS011;52595;51.608;7.216;2024-01-15T14:04:47;6.25;;;2.45;;
65835;SDS011;52595;51.608;7.216;2024-01-15T14:07:13;4.88;;;2.10;;
65835;SDS011;52595;51.608;7.216;2024-01-15T14:09:38;3.25;;;2.25;;
65835;SDS011;52595;51.608;7.216;2024-01-15T14:12:04;6.78;;;2.80;;
65835;SDS011;52595;51.608;7.216;2024-01-15T14:14:31;6.88;;;3.20;;
65835;SDS011;52595;51.608;7.216;2024-01-15T14:16:56;4.65;;;2.38;;
65835;SDS011;52595;51.608;7.216;2024-01-15T14:19:21;4.50;;;2.20;;
65835;SDS011;52595;51.608;7.216;2024-01-15T14:21:47;5.68;;;2.30;;
65835;SDS011;52595;51.608;7.216;2024-01-15T14:24:12;3.50;;;1.90;;
65835;SDS011;52595;51.608;7.216;2024-01-15T14:26:38;5.65;;;2.00;;
65835;SDS011;52595;51.608;7.216;2024-01-15T14:29:03;7.25;;;2.42;;
65835;SDS011;52595;51.608;7.216;2024-01-15T14:31:30;5.60;;;2.15;;
65835;SDS011;52595;51.608;7.216;2024-01-15T14:33:58;4.60;;;2.20;;
65835;SDS011;52595;51.608;7.216;2024-01-15T14:36:24;5.32;;;1.83;;
65835;SDS011;52595;51.608;7.216;2024-01-15T14:38:52;6.38;;;1.88;;
65835;SDS011;52595;51.608;7.216;2024-01-15T14:41:17;4.07;;;1.88;;
65835;SDS011;52595;51.608;7.216;2024-01-15T14:43:43;3.80;;;1.90;;
65835;SDS011;52595;51.608;7.216;2024-01-15T14:46:09;3.50;;;2.40;;
65835;SDS011;52595;51.608;7.216;2024-01-15T14:48:37;3.03;;;1.95;;
65835;SDS011;52595;51.608;7.216;2024-01-15T14:51:03;2.85;;;1.90;;
65835;SDS011;52595;51.608;7.216;2024-01-15T14:53:31;3.72;;;2.40;;